Terminal Aerodrome Forecast
Issued by NWS

Home | Current Version | Previous Version | Graphics & Text | Print | Product List | Glossary On
Versions: 1 2 3 4 5 6 7 8 9 10 11 12 13 14 15
000
FTUS43 KGRB 161700
TAFAUW
TAF
KAUW 161724Z 1618/1718 21004KT P6SM BKN100
     FM162100 24005KT P6SM SCT100
     FM170100 VRB03KT P6SM BKN090
     FM170900 VRB03KT P6SM BKN070
     FM171200 VRB03KT P6SM SCT050=

USA.gov is the U.S. government's official web portal to all federal, state and local government web resources and services.